Time;durP1;ratioP1;P1;durP2;ratioP2;P2;SDS_P1;SDS_P2;PMS_P1;PMS_P2;Temp;Humidity;BMP_temperature;BMP_pressure;BME280_temperature;BME280_humidity;BME280_pressure;Samples;Min_cycle;Max_cycle;Signal;HPM_P1;HPM_P2
2021/09/10 00:02:03;;;;;;;24.63;15.10;;;;;;;13.32;70.97;100442.69;1765161;78;25892;-67
2021/09/10 00:04:30;;;;;;;24.12;16.30;;;;;;;13.31;71.07;100442.41;1783168;80;25671;-67
2021/09/10 00:06:57;;;;;;;31.62;17.60;;;;;;;13.29;71.35;100436.51;1756667;80;27803;-66
2021/09/10 00:09:23;;;;;;;40.67;18.90;;;;;;;13.27;71.61;100439.55;1778195;80;25619;-66
2021/09/10 00:11:50;;;;;;;64.27;24.52;;;;;;;13.26;71.48;100442.02;1770298;80;27385;-66
2021/09/10 00:14:16;;;;;;;45.90;20.45;;;;;;;13.24;71.44;100442.91;1756462;79;25829;-66
2021/09/10 00:16:43;;;;;;;65.30;24.63;;;;;;;13.24;71.44;100447.77;1768773;80;25610;-66
2021/09/10 00:19:10;;;;;;;55.10;22.90;;;;;;;13.24;71.47;100445.62;1788279;79;25615;-66
2021/09/10 00:21:37;;;;;;;36.68;18.17;;;;;;;13.22;71.57;100442.44;1771897;80;25610;-67
2021/09/10 00:24:05;;;;;;;41.33;20.15;;;;;;;13.20;71.50;100437.32;1779074;80;27344;-67
2021/09/10 00:26:31;;;;;;;29.65;17.77;;;;;;;13.18;71.60;100434.14;1783903;79;25777;-67
2021/09/10 00:28:58;;;;;;;28.73;16.32;;;;;;;13.16;71.47;100439.09;1774045;80;25625;-67
2021/09/10 00:31:24;;;;;;;30.50;16.05;;;;;;;13.12;71.52;100433.27;1781037;79;25669;-67
2021/09/10 00:33:51;;;;;;;23.55;15.35;;;;;;;13.10;71.54;100433.59;1788555;80;25436;-67
2021/09/10 00:36:18;;;;;;;24.35;15.23;;;;;;;13.08;71.77;100437.98;1787286;78;27328;-67
2021/09/10 00:38:44;;;;;;;24.60;16.32;;;;;;;13.08;72.05;100436.63;1778519;80;25918;-67
2021/09/10 00:48:30;;;;;;;25.25;16.45;;;;;;;12.99;72.09;100434.49;1738492;79;27266;-65
2021/09/10 00:50:57;;;;;;;24.20;16.23;;;;;;;12.98;72.27;100435.59;1748140;80;25373;-66
2021/09/10 00:53:26;;;;;;;25.30;16.02;;;;;;;12.96;72.16;100435.70;1771998;79;25470;-66
2021/09/10 00:55:52;;;;;;;20.65;15.40;;;;;;;12.95;72.18;100434.09;1747417;79;27865;-66
2021/09/10 00:58:19;;;;;;;22.70;15.95;;;;;;;12.94;72.15;100436.55;1792614;78;25771;-66
2021/09/10 01:00:46;;;;;;;25.65;16.48;;;;;;;12.90;72.15;100433.69;1769747;78;27276;-68
2021/09/10 01:03:13;;;;;;;22.55;15.60;;;;;;;12.87;72.61;100429.72;1725969;80;25641;-67
2021/09/10 01:05:43;;;;;;;26.27;15.60;;;;;;;12.87;72.46;100435.68;1786939;77;25489;-66
2021/09/10 01:08:12;;;;;;;25.55;15.93;;;;;;;12.83;72.16;100436.09;1814091;77;25705;-67
2021/09/10 01:10:42;;;;;;;23.70;15.75;;;;;;;12.82;72.33;100431.77;1767028;79;25777;-66
2021/09/10 01:13:12;;;;;;;20.40;15.00;;;;;;;12.79;72.64;100426.44;1767063;78;27404;-67
2021/09/10 01:15:40;;;;;;;24.47;16.40;;;;;;;12.78;72.78;100430.83;1793705;77;25584;-68
2021/09/10 01:18:06;;;;;;;26.60;15.93;;;;;;;12.75;72.68;100433.61;1784670;78;25835;-67
2021/09/10 01:20:33;;;;;;;23.77;16.10;;;;;;;12.71;72.45;100438.09;1772294;79;25614;-68
2021/09/10 01:22:59;;;;;;;28.27;16.82;;;;;;;12.68;72.85;100434.66;1766487;79;25292;-67
2021/09/10 01:25:26;;;;;;;19.80;15.13;;;;;;;12.63;72.79;100434.81;1788608;77;29426;-67
2021/09/10 01:27:58;;;;;;;23.65;16.40;;;;;;;12.61;72.72;100430.27;1799032;77;25814;-67
2021/09/10 01:30:29;;;;;;;22.30;15.83;;;;;;;12.58;72.72;100430.91;1801862;77;25326;-67
2021/09/10 01:32:59;;;;;;;22.62;15.68;;;;;;;12.55;72.63;100433.70;1783971;78;25622;-67
2021/09/10 01:35:26;;;;;;;24.43;15.13;;;;;;;12.52;72.83;100430.27;1811621;77;25452;-68
2021/09/10 01:37:56;;;;;;;24.52;16.48;;;;;;;12.50;73.17;100433.87;1815110;77;27367;-68
2021/09/10 01:40:23;;;;;;;26.82;16.57;;;;;;;12.47;73.34;100433.93;1814777;77;28672;-68
2021/09/10 01:42:51;;;;;;;23.75;15.32;;;;;;;12.45;73.64;100437.53;1815053;78;25575;-68
2021/09/10 01:45:18;;;;;;;24.70;15.43;;;;;;;12.44;73.60;100439.20;1806668;77;25772;-67
2021/09/10 01:47:44;;;;;;;26.12;16.48;;;;;;;12.41;73.54;100433.86;1800435;77;25686;-65
2021/09/10 01:50:16;;;;;;;24.85;15.75;;;;;;;12.40;73.62;100426.04;1807376;77;27289;-65
2021/09/10 01:52:43;;;;;;;23.40;16.37;;;;;;;12.38;73.38;100428.25;1784582;77;25738;-65
2021/09/10 01:55:13;;;;;;;20.10;15.18;;;;;;;12.36;73.68;100423.17;1803761;79;25679;-65
2021/09/10 01:57:44;;;;;;;23.05;16.32;;;;;;;12.33;73.71;100423.80;1807800;78;25605;-65
2021/09/10 02:00:11;;;;;;;22.62;15.35;;;;;;;12.31;73.59;100413.83;1782511;80;25875;-65
2021/09/10 02:02:38;;;;;;;22.22;16.45;;;;;;;12.27;73.75;100425.84;1780134;78;27480;-65
2021/09/10 02:05:06;;;;;;;27.35;17.60;;;;;;;12.24;74.12;100420.25;1782733;78;25672;-65
2021/09/10 02:07:33;;;;;;;21.68;16.12;;;;;;;12.23;74.35;100422.75;1798151;78;25348;-65
2021/09/10 02:10:00;;;;;;;22.98;16.00;;;;;;;12.20;74.49;100421.45;1808557;78;25966;-65
2021/09/10 02:12:27;;;;;;;24.55;16.93;;;;;;;12.19;74.14;100426.65;1778178;80;25797;-65
2021/09/10 02:14:54;;;;;;;28.47;16.73;;;;;;;12.17;74.68;100421.29;1795647;78;27235;-65
2021/09/10 02:17:22;;;;;;;27.80;17.50;;;;;;;12.13;74.43;100424.63;1775846;79;25785;-65
2021/09/10 02:19:49;;;;;;;29.95;17.57;;;;;;;12.12;74.20;100423.58;1781233;78;25517;-65
2021/09/10 02:22:16;;;;;;;24.25;16.37;;;;;;;12.09;74.62;100423.67;1784027;80;26206;-65
2021/09/10 02:24:42;;;;;;;25.27;15.23;;;;;;;12.07;74.84;100417.77;1785867;79;25852;-65
2021/09/10 02:27:10;;;;;;;28.95;17.87;;;;;;;12.07;74.52;100421.02;1787041;79;27310;-65
2021/09/10 02:29:37;;;;;;;24.75;17.45;;;;;;;12.05;74.80;100424.05;1804190;78;25612;-65
2021/09/10 02:32:05;;;;;;;26.93;18.65;;;;;;;12.04;74.91;100423.03;1769876;79;25536;-65
2021/09/10 02:34:53;;;;;;;32.25;17.85;;;;;;;12.02;75.47;100424.70;1736096;80;26479;-65
2021/09/10 02:37:29;;;;;;;24.55;17.62;;;;;;;12.01;75.48;100423.66;1637331;86;25906;-65
2021/09/10 02:39:56;;;;;;;26.73;16.27;;;;;;;11.99;75.47;100417.19;1690601;83;27367;-67
2021/09/10 02:42:23;;;;;;;27.10;16.82;;;;;;;11.99;75.21;100415.05;1695232;83;25887;-67
2021/09/10 02:44:50;;;;;;;29.72;18.62;;;;;;;11.95;75.01;100410.25;1677045;82;25908;-67
2021/09/10 02:47:17;;;;;;;22.87;16.30;;;;;;;11.93;74.91;100411.66;1685112;82;25902;-67
2021/09/10 02:49:43;;;;;;;26.02;17.02;;;;;;;11.91;75.35;100413.33;1686904;83;25930;-67
2021/09/10 02:52:11;;;;;;;23.75;17.50;;;;;;;11.89;75.17;100412.82;1693851;82;28281;-67
2021/09/10 02:54:37;;;;;;;24.63;17.20;;;;;;;11.85;75.71;100412.41;1683065;83;25911;-67
2021/09/10 02:57:04;;;;;;;29.42;18.25;;;;;;;11.86;75.87;100416.72;1689575;83;25944;-68
2021/09/10 02:59:30;;;;;;;26.50;17.98;;;;;;;11.84;75.94;100414.32;1690241;83;25663;-67
2021/09/10 03:01:57;;;;;;;25.65;17.40;;;;;;;11.82;75.78;100419.27;1680298;83;25327;-67
2021/09/10 03:04:24;;;;;;;23.50;17.52;;;;;;;11.81;75.78;100414.94;1685796;83;27461;-67
2021/09/10 03:06:51;;;;;;;26.10;17.52;;;;;;;11.80;75.94;100419.32;1694741;83;25842;-67
2021/09/10 03:09:17;;;;;;;28.40;18.25;;;;;;;11.78;75.70;100410.14;1702282;82;25472;-68
2021/09/10 03:11:44;;;;;;;28.70;18.48;;;;;;;11.75;76.13;100407.52;1692620;82;25708;-68
2021/09/10 03:14:10;;;;;;;25.43;18.98;;;;;;;11.73;76.51;100410.29;1706606;80;26342;-68
2021/09/10 03:16:37;;;;;;;25.65;18.87;;;;;;;11.72;76.92;100411.42;1758035;79;27382;-67
2021/09/10 03:19:03;;;;;;;25.17;17.95;;;;;;;11.73;76.75;100410.29;1766882;80;25858;-67
2021/09/10 03:21:30;;;;;;;25.35;18.02;;;;;;;11.71;76.55;100409.27;1762748;80;25820;-67
2021/09/10 03:23:57;;;;;;;29.75;18.60;;;;;;;11.70;76.79;100409.02;1772028;78;25702;-67
2021/09/10 03:26:23;;;;;;;26.52;18.15;;;;;;;11.68;76.99;100408.54;1759404;78;25653;-67
2021/09/10 03:28:50;;;;;;;28.67;18.95;;;;;;;11.66;76.93;100411.30;1761374;79;27564;-67
2021/09/10 03:31:17;;;;;;;27.98;19.25;;;;;;;11.64;77.03;100406.77;1761863;78;25805;-67
2021/09/10 03:33:44;;;;;;;27.42;18.50;;;;;;;11.59;76.97;100405.80;1771555;79;25822;-67
2021/09/10 03:36:11;;;;;;;28.05;18.73;;;;;;;11.61;77.24;100408.17;1737056;79;25777;-67
2021/09/10 03:38:37;;;;;;;25.37;18.85;;;;;;;11.61;77.50;100406.03;1727304;80;25383;-67
2021/09/10 03:41:04;;;;;;;28.62;18.12;;;;;;;11.60;77.61;100405.23;1736317;81;27705;-67
2021/09/10 03:43:31;;;;;;;32.50;20.70;;;;;;;11.58;77.66;100404.76;1697685;83;25863;-67
2021/09/10 03:45:58;;;;;;;27.17;18.15;;;;;;;11.55;77.89;100406.16;1758605;79;25859;-67
2021/09/10 03:48:25;;;;;;;30.85;19.40;;;;;;;11.54;77.58;100403.23;1741400;80;25645;-67
2021/09/10 03:50:51;;;;;;;27.48;19.00;;;;;;;11.53;77.58;100402.19;1741496;81;25510;-67
2021/09/10 03:53:18;;;;;;;27.40;18.75;;;;;;;11.50;77.56;100409.02;1747062;79;27335;-67
2021/09/10 03:55:45;;;;;;;28.90;19.85;;;;;;;11.48;77.70;100401.76;1764789;79;25997;-67
2021/09/10 03:58:11;;;;;;;30.57;18.95;;;;;;;11.49;77.78;100407.44;1770408;79;25925;-67
2021/09/10 04:00:38;;;;;;;27.52;18.55;;;;;;;11.47;77.84;100405.57;1777982;78;25676;-67
2021/09/10 04:03:04;;;;;;;26.23;18.67;;;;;;;11.46;77.83;100406.70;1766994;78;25935;-67
2021/09/10 04:05:31;;;;;;;25.77;17.87;;;;;;;11.45;77.77;100405.66;1759201;79;27308;-67
2021/09/10 04:07:57;;;;;;;29.00;18.57;;;;;;;11.43;78.01;100405.96;1776915;79;25973;-67
2021/09/10 04:10:25;;;;;;;25.72;18.35;;;;;;;11.43;77.83;100413.30;1768842;80;25893;-68
2021/09/10 04:12:53;;;;;;;25.68;17.98;;;;;;;11.40;77.96;100416.84;1759321;80;25716;-67
2021/09/10 04:15:21;;;;;;;30.45;19.23;;;;;;;11.40;77.85;100414.14;1769816;79;25859;-65
2021/09/10 04:17:48;;;;;;;31.25;19.75;;;;;;;11.38;77.93;100413.66;1758044;80;27971;-65
2021/09/10 04:20:15;;;;;;;30.00;19.30;;;;;;;11.35;78.16;100419.69;1775901;79;25865;-65
2021/09/10 04:22:42;;;;;;;30.08;18.77;;;;;;;11.34;78.30;100415.94;1759864;80;25392;-66
2021/09/10 04:25:10;;;;;;;29.50;19.37;;;;;;;11.34;78.21;100415.94;1772635;79;25962;-65
2021/09/10 04:27:38;;;;;;;28.15;18.80;;;;;;;11.33;78.45;100411.65;1749938;79;25859;-66
2021/09/10 04:30:08;;;;;;;25.35;17.60;;;;;;;11.32;78.55;100413.56;1757498;79;27385;-65
2021/09/10 04:32:36;;;;;;;29.65;19.02;;;;;;;11.31;78.93;100409.81;1764174;80;25736;-65
2021/09/10 04:35:05;;;;;;;29.95;19.30;;;;;;;11.30;79.05;100410.91;1767778;78;25816;-66
2021/09/10 04:37:31;;;;;;;30.60;20.20;;;;;;;11.31;79.15;100411.16;1776409;79;25750;-67
2021/09/10 04:39:58;;;;;;;26.87;19.30;;;;;;;11.29;79.16;100406.59;1762896;80;25827;-67
2021/09/10 04:42:24;;;;;;;30.30;19.00;;;;;;;11.30;79.40;100402.78;1770306;79;27342;-67
2021/09/10 04:44:50;;;;;;;29.12;18.57;;;;;;;11.30;79.48;100402.22;1757906;80;27208;-67
2021/09/10 04:47:17;;;;;;;31.52;19.90;;;;;;;11.32;79.70;100412.75;1761237;80;25773;-65
2021/09/10 04:49:43;;;;;;;29.70;19.42;;;;;;;11.32;79.65;100407.33;1774080;79;25869;-67
2021/09/10 04:52:10;;;;;;;30.23;19.10;;;;;;;11.35;79.77;100410.21;1771168;79;25830;-68
2021/09/10 04:54:37;;;;;;;26.85;19.12;;;;;;;11.37;79.99;100405.84;1771179;79;27350;-67
2021/09/10 04:57:04;;;;;;;28.45;18.80;;;;;;;11.43;80.29;100410.59;1764023;79;25805;-68
2021/09/10 04:59:31;;;;;;;30.27;18.67;;;;;;;11.47;80.17;100415.05;1761966;79;25836;-67
2021/09/10 05:01:58;;;;;;;27.32;18.27;;;;;;;11.52;80.20;100416.83;1766474;78;25690;-67
2021/09/10 05:04:25;;;;;;;29.23;18.27;;;;;;;11.56;80.27;100411.84;1769354;79;25794;-67
2021/09/10 05:06:53;;;;;;;27.60;19.02;;;;;;;11.62;80.53;100415.20;1768943;80;27418;-67
2021/09/10 05:09:20;;;;;;;31.25;19.37;;;;;;;11.68;80.57;100418.56;1772376;78;25381;-67
2021/09/10 05:11:47;;;;;;;27.13;19.17;;;;;;;11.74;80.45;100417.31;1775845;79;25835;-66
2021/09/10 05:14:15;;;;;;;30.23;19.32;;;;;;;11.80;80.48;100417.43;1776032;78;25787;-68
2021/09/10 05:16:42;;;;;;;29.90;19.67;;;;;;;11.87;80.39;100419.12;1748214;80;25882;-67
2021/09/10 05:19:10;;;;;;;29.70;18.92;;;;;;;11.95;80.52;100414.84;1748455;80;27398;-67
2021/09/10 05:21:38;;;;;;;30.37;19.45;;;;;;;12.05;80.46;100420.55;1742775;80;25693;-67
2021/09/10 05:24:04;;;;;;;30.70;19.20;;;;;;;12.14;80.40;100419.45;1750383;80;26418;-68
2021/09/10 05:26:32;;;;;;;29.60;19.07;;;;;;;12.23;80.41;100423.53;1716958;79;25773;-67
2021/09/10 05:28:58;;;;;;;27.62;18.90;;;;;;;12.34;80.40;100417.23;1751892;79;25888;-66
2021/09/10 05:31:26;;;;;;;30.88;18.23;;;;;;;12.44;80.35;100422.35;1750964;81;27498;-66
2021/09/10 05:33:54;;;;;;;28.40;17.73;;;;;;;12.54;80.30;100418.53;1737333;80;25877;-67
2021/09/10 05:36:20;;;;;;;25.97;17.55;;;;;;;12.65;80.30;100421.72;1753893;80;25840;-66
2021/09/10 05:38:47;;;;;;;24.45;17.42;;;;;;;12.76;80.02;100424.36;1743174;79;25757;-66
2021/09/10 05:41:13;;;;;;;27.73;17.45;;;;;;;12.87;79.92;100421.57;1757296;79;25400;-67
2021/09/10 05:43:40;;;;;;;26.95;16.37;;;;;;;13.03;79.76;100427.28;1748867;81;27323;-67
2021/09/10 05:46:06;;;;;;;28.98;17.17;;;;;;;13.18;79.54;100425.98;1734893;80;25836;-66
2021/09/10 05:48:33;;;;;;;29.65;17.52;;;;;;;13.34;79.55;100422.78;1746301;81;25750;-67
2021/09/10 05:50:59;;;;;;;27.02;17.32;;;;;;;13.51;79.36;100425.44;1748812;81;25981;-67
2021/09/10 05:53:26;;;;;;;24.15;16.00;;;;;;;13.69;79.32;100430.25;1742907;79;25450;-65
2021/09/10 05:55:52;;;;;;;23.62;16.12;;;;;;;13.88;79.25;100424.98;1743611;79;28100;-67
2021/09/10 05:58:19;;;;;;;26.62;16.25;;;;;;;14.05;78.70;100428.95;1738589;81;26121;-68
2021/09/10 06:00:45;;;;;;;22.95;15.98;;;;;;;14.23;78.38;100428.27;1743788;80;25867;-68
2021/09/10 06:03:12;;;;;;;21.73;14.60;;;;;;;14.42;78.08;100433.28;1737041;80;25981;-67
2021/09/10 06:05:40;;;;;;;26.23;15.75;;;;;;;14.61;77.90;100426.59;1742854;80;25421;-66
2021/09/10 06:08:06;;;;;;;25.77;16.40;;;;;;;14.75;76.47;100425.19;1743846;79;27455;-68
2021/09/10 06:10:33;;;;;;;24.55;16.15;;;;;;;14.99;76.88;100433.23;1752612;81;25934;-66
2021/09/10 06:12:59;;;;;;;27.17;16.07;;;;;;;15.20;76.45;100425.56;1749750;79;25895;-66
2021/09/10 06:15:29;;;;;;;25.20;14.60;;;;;;;15.39;75.99;100427.22;1720312;80;25871;-66
2021/09/10 06:18:03;;;;;;;22.75;13.95;;;;;;;15.61;75.00;100434.72;1746219;78;25461;-66
2021/09/10 06:20:29;;;;;;;23.40;14.80;;;;;;;15.82;74.68;100429.22;1747119;80;27331;-66
2021/09/10 06:22:56;;;;;;;21.80;14.87;;;;;;;16.05;74.49;100441.23;1742471;80;26482;-66
2021/09/10 06:25:24;;;;;;;22.65;13.80;;;;;;;16.33;74.58;100443.81;1747754;80;25834;-66
2021/09/10 06:27:52;;;;;;;25.05;13.93;;;;;;;16.59;73.86;100444.21;1765570;78;25691;-65
2021/09/10 06:30:18;;;;;;;25.60;13.32;;;;;;;16.80;72.56;100445.41;1750648;80;27373;-66
2021/09/10 06:32:45;;;;;;;23.20;14.75;;;;;;;17.05;72.60;100442.59;1761528;79;27381;-65
2021/09/10 06:35:12;;;;;;;18.15;13.28;;;;;;;17.34;72.25;100444.13;1753572;79;25865;-66
2021/09/10 06:37:39;;;;;;;21.23;13.25;;;;;;;17.57;70.48;100442.19;1691289;81;25574;-65
2021/09/10 06:40:07;;;;;;;22.22;12.85;;;;;;;17.77;69.95;100446.36;1715004;81;27823;-65
2021/09/10 06:42:34;;;;;;;19.90;13.70;;;;;;;17.96;68.36;100441.56;1741931;80;25779;-65
2021/09/10 06:45:00;;;;;;;22.73;12.82;;;;;;;18.11;68.47;100439.37;1749349;80;27309;-65
2021/09/10 06:47:27;;;;;;;18.45;13.43;;;;;;;18.16;67.09;100443.20;1752868;80;25891;-64
2021/09/10 06:49:55;;;;;;;17.55;12.18;;;;;;;18.22;67.34;100447.84;1745990;81;25477;-64
2021/09/10 06:52:22;;;;;;;21.07;12.88;;;;;;;18.24;66.16;100440.84;1751795;80;26165;-65
2021/09/10 06:54:49;;;;;;;15.78;11.95;;;;;;;18.27;65.83;100442.88;1747561;80;25780;-65
2021/09/10 06:57:15;;;;;;;17.27;11.97;;;;;;;18.37;66.02;100447.00;1740453;80;27957;-64
2021/09/10 06:59:43;;;;;;;20.95;12.00;;;;;;;18.43;65.28;100446.92;1750590;80;25448;-65
2021/09/10 07:02:09;;;;;;;16.40;11.43;;;;;;;18.50;65.26;100454.50;1748559;80;25705;-65
2021/09/10 07:04:36;;;;;;;17.37;11.85;;;;;;;18.63;65.33;100449.11;1750412;80;25944;-66
2021/09/10 07:07:03;;;;;;;18.62;11.88;;;;;;;18.75;64.43;100454.24;1746928;81;25697;-66
2021/09/10 07:09:30;;;;;;;18.65;11.48;;;;;;;18.86;64.19;100463.48;1706862;82;27323;-66
2021/09/10 07:11:56;;;;;;;13.65;10.30;;;;;;;18.95;64.16;100450.37;1749654;80;25438;-65
2021/09/10 07:14:22;;;;;;;17.05;11.22;;;;;;;19.17;63.84;100448.83;1751607;80;25762;-65
2021/09/10 07:16:49;;;;;;;19.92;12.25;;;;;;;19.37;63.51;100455.62;1739458;79;25836;-65
2021/09/10 07:19:15;;;;;;;15.55;11.63;;;;;;;19.54;62.71;100458.47;1753841;80;25778;-65
2021/09/10 07:21:41;;;;;;;19.48;11.80;;;;;;;19.62;61.79;100461.55;1758458;80;28030;-65
2021/09/10 07:24:07;;;;;;;14.87;10.93;;;;;;;19.83;61.40;100461.72;1749889;80;25447;-65
2021/09/10 07:26:34;;;;;;;18.42;10.63;;;;;;;19.84;60.23;100459.20;1751694;80;25663;-65
2021/09/10 07:29:00;;;;;;;17.62;11.18;;;;;;;19.96;61.86;100461.73;1754250;80;26087;-65
2021/09/10 07:31:27;;;;;;;18.00;11.60;;;;;;;20.27;61.95;100461.20;1754521;80;25676;-65
2021/09/10 07:33:54;;;;;;;18.73;11.38;;;;;;;20.65;61.38;100468.99;1756665;80;28491;-65
2021/09/10 07:36:20;;;;;;;19.55;11.30;;;;;;;20.90;60.10;100465.18;1752490;80;25792;-65
2021/09/10 07:38:47;;;;;;;17.23;11.43;;;;;;;21.01;59.44;100469.42;1750839;80;25819;-65
2021/09/10 07:41:14;;;;;;;17.73;11.08;;;;;;;21.17;58.85;100465.88;1756725;80;25806;-65
2021/09/10 07:43:40;;;;;;;19.62;10.53;;;;;;;21.24;57.71;100475.56;1756516;80;26350;-65
2021/09/10 07:46:06;;;;;;;16.25;11.08;;;;;;;21.35;57.85;100476.26;1752762;80;27271;-64
2021/09/10 07:48:33;;;;;;;18.92;11.53;;;;;;;21.55;57.51;100476.28;1752985;79;25627;-63
2021/09/10 07:51:00;;;;;;;16.87;10.43;;;;;;;21.98;57.60;100478.59;1756250;80;25785;-63
2021/09/10 07:53:28;;;;;;;15.05;10.98;;;;;;;22.48;57.24;100480.92;1768883;79;26151;-65
2021/09/10 07:55:54;;;;;;;15.38;10.40;;;;;;;22.86;55.62;100478.73;1745085;80;25796;-65
2021/09/10 07:58:21;;;;;;;16.02;10.28;;;;;;;23.23;54.71;100480.45;1760505;79;27322;-65
2021/09/10 08:00:47;;;;;;;16.82;10.15;;;;;;;23.31;53.71;100490.33;1774765;80;25468;-66
2021/09/10 08:03:14;;;;;;;16.80;10.38;;;;;;;23.51;54.23;100487.97;1768676;79;25771;-65
2021/09/10 08:05:40;;;;;;;20.20;10.45;;;;;;;23.83;53.78;100477.56;1745215;79;25718;-64
2021/09/10 08:08:07;;;;;;;15.58;10.88;;;;;;;24.10;53.07;100489.59;1753020;80;25957;-63
2021/09/10 08:10:34;;;;;;;14.47;9.95;;;;;;;24.01;52.22;100485.25;1724599;81;27269;-64
2021/09/10 08:13:02;;;;;;;15.70;10.82;;;;;;;24.25;52.43;100486.99;1711830;82;25877;-63
2021/09/10 08:15:29;;;;;;;17.00;9.63;;;;;;;24.46;52.23;100486.74;1717241;83;25943;-63
2021/09/10 08:17:55;;;;;;;14.98;10.03;;;;;;;24.63;52.05;100481.00;1745593;80;26763;-63
2021/09/10 08:20:22;;;;;;;13.40;10.03;;;;;;;24.80;51.48;100475.38;1744251;79;25413;-64
2021/09/10 08:22:49;;;;;;;15.23;9.80;;;;;;;24.91;50.72;100485.02;1749616;80;27317;-64
2021/09/10 08:25:15;;;;;;;13.05;9.28;;;;;;;24.97;50.13;100475.09;1748795;80;25842;-64
2021/09/10 08:27:42;;;;;;;14.43;9.10;;;;;;;25.10;49.36;100471.28;1756498;80;25828;-64
2021/09/10 08:30:10;;;;;;;13.03;9.30;;;;;;;24.95;48.72;100466.42;1739647;80;25861;-64
2021/09/10 08:32:37;;;;;;;14.63;9.85;;;;;;;24.95;49.04;100467.80;1755115;80;25497;-65
2021/09/10 08:35:05;;;;;;;15.45;9.45;;;;;;;25.30;49.56;100470.78;1756920;80;28136;-65
2021/09/10 08:37:32;;;;;;;11.73;8.95;;;;;;;25.42;49.10;100467.56;1745026;79;25796;-65
2021/09/10 08:39:59;;;;;;;13.72;9.03;;;;;;;25.79;49.24;100470.81;1749773;80;25836;-65
2021/09/10 08:42:27;;;;;;;14.58;9.28;;;;;;;25.89;47.92;100465.78;1764927;80;26359;-66
2021/09/10 08:44:54;;;;;;;12.33;8.80;;;;;;;26.03;47.73;100464.30;1718826;80;25881;-65
2021/09/10 08:47:20;;;;;;;12.23;9.18;;;;;;;26.03;46.26;100465.69;1689194;83;27907;-66
2021/09/10 08:49:47;;;;;;;14.80;8.58;;;;;;;26.13;46.95;100463.98;1698588;82;26116;-66
2021/09/10 08:52:15;;;;;;;16.97;9.35;;;;;;;26.34;46.67;100464.95;1692975;83;25867;-67
2021/09/10 08:54:42;;;;;;;21.25;9.15;;;;;;;26.35;46.06;100461.77;1706359;82;25761;-66
2021/09/10 08:57:11;;;;;;;10.95;8.88;;;;;;;26.34;45.80;100463.56;1696082;82;25748;-66
2021/09/10 08:59:37;;;;;;;13.20;8.68;;;;;;;26.31;45.69;100463.81;1706165;82;27368;-66
2021/09/10 09:02:05;;;;;;;12.50;8.63;;;;;;;26.38;45.55;100463.72;1742869;81;25835;-66
2021/09/10 09:04:35;;;;;;;15.35;8.60;;;;;;;26.57;45.61;100464.30;1742126;81;26100;-66
2021/09/10 09:07:06;;;;;;;17.35;7.85;;;;;;;26.97;46.30;100453.50;1694000;83;25825;-71
2021/09/10 09:09:47;;;;;;;14.23;8.73;;;;;;;27.30;45.11;100453.86;1690869;82;25844;-71
2021/09/10 09:12:30;;;;;;;13.32;8.33;;;;;;;27.50;45.16;100450.56;1678075;83;27318;-72
2021/09/10 09:15:06;;;;;;;12.95;8.23;;;;;;;27.83;44.04;100456.35;1707713;83;25811;-72
2021/09/10 09:17:39;;;;;;;17.07;8.33;;;;;;;28.06;43.73;100458.95;1713731;82;25795;-71
2021/09/10 09:20:26;;;;;;;10.10;7.80;;;;;;;28.36;43.27;100459.98;1706426;83;26438;-71
2021/09/10 09:23:11;;;;;;;11.53;7.83;;;;;;;28.34;41.88;100458.25;1672387;83;25902;-72
2021/09/10 09:25:48;;;;;;;13.88;7.67;;;;;;;28.17;41.43;100465.10;1689459;82;27996;-70
2021/09/10 09:28:25;;;;;;;13.15;7.70;;;;;;;28.32;42.51;100458.67;1711676;83;26516;-71
2021/09/10 09:31:09;;;;;;;13.95;8.10;;;;;;;28.59;41.35;100460.53;1712234;82;25808;-71
2021/09/10 09:33:39;;;;;;;16.20;7.92;;;;;;;28.71;41.62;100456.31;1688208;82;26144;-70
2021/09/10 09:36:14;;;;;;;11.55;7.92;;;;;;;28.91;41.18;100453.50;1686216;83;25704;-70
2021/09/10 09:38:43;;;;;;;11.83;7.95;;;;;;;29.29;41.27;100455.25;1678544;84;28151;-70
2021/09/10 09:41:17;;;;;;;11.83;8.45;;;;;;;29.46;40.63;100449.08;1677831;83;25865;-70
2021/09/10 09:43:51;;;;;;;17.50;11.85;;;;;;;29.43;39.28;100456.91;1670654;84;26112;-70
2021/09/10 09:46:21;;;;;;;17.00;8.50;;;;;;;29.52;39.77;100447.31;1680241;83;25676;-69
2021/09/10 09:48:51;;;;;;;12.68;7.87;;;;;;;29.86;38.80;100458.63;1712099;82;25820;-69
2021/09/10 09:51:20;;;;;;;11.08;7.45;;;;;;;29.77;39.06;100455.08;1675422;84;27300;-70
2021/09/10 09:53:49;;;;;;;11.80;7.37;;;;;;;29.93;37.80;100446.51;1707579;82;25675;-70
2021/09/10 09:56:16;;;;;;;11.48;7.60;;;;;;;29.59;37.59;100458.89;1735843;81;25841;-68
2021/09/10 09:58:44;;;;;;;14.55;7.15;;;;;;;29.71;38.09;100448.45;1743427;81;25725;-67
2021/09/10 10:01:11;;;;;;;12.10;6.50;;;;;;;29.91;37.84;100451.75;1744060;81;25795;-68
2021/09/10 10:03:44;;;;;;;10.38;7.08;;;;;;;29.99;37.34;100456.69;1729904;81;27321;-68
2021/09/10 10:06:26;;;;;;;14.43;6.67;;;;;;;29.76;36.60;100453.53;1737213;80;25776;-68
2021/09/10 10:09:13;;;;;;;12.88;6.85;;;;;;;29.48;36.44;100455.61;1729082;80;25795;-68
2021/09/10 10:11:45;;;;;;;12.73;7.20;;;;;;;29.59;36.84;100447.75;1707397;82;25715;-68
2021/09/10 10:14:31;;;;;;;11.73;6.58;;;;;;;29.95;37.58;100455.21;1671725;83;25902;-68
2021/09/10 10:17:01;;;;;;;10.90;6.47;;;;;;;30.22;36.86;100449.30;1678134;83;27379;-68
2021/09/10 10:19:38;;;;;;;9.68;6.60;;;;;;;30.57;36.81;100452.34;1709600;81;25760;-68
2021/09/10 10:22:08;;;;;;;11.03;5.58;;;;;;;30.73;35.74;100450.06;1690454;83;32710;-68
2021/09/10 10:24:55;;;;;;;12.45;7.20;;;;;;;30.81;34.56;100455.61;1686732;83;26214;-68
2021/09/10 10:27:43;;;;;;;10.23;6.05;;;;;;;30.61;34.78;100443.23;1672810;82;26057;-68
2021/09/10 10:30:37;;;;;;;10.63;6.40;;;;;;;30.65;35.04;100452.89;1725351;81;28119;-68
2021/09/10 10:33:27;;;;;;;10.40;6.47;;;;;;;30.49;34.69;100450.36;1734432;81;25858;-68
2021/09/10 10:35:55;;;;;;;9.38;6.45;;;;;;;30.75;35.22;100460.79;1715490;81;25869;-68
2021/09/10 10:38:22;;;;;;;11.83;6.27;;;;;;;30.47;33.80;100448.62;1730684;79;26238;-68
2021/09/10 10:40:53;;;;;;;10.65;6.28;;;;;;;30.44;35.25;100439.73;1738487;81;25797;-68
2021/09/10 10:43:29;;;;;;;11.00;6.30;;;;;;;30.90;35.29;100439.58;1743991;81;29470;-67
2021/09/10 10:46:06;;;;;;;10.82;6.28;;;;;;;30.93;34.52;100441.48;1740186;80;25749;-67
2021/09/10 10:48:38;;;;;;;12.30;6.12;;;;;;;30.95;34.24;100440.45;1746598;80;25827;-67
2021/09/10 10:51:22;;;;;;;7.62;6.00;;;;;;;30.86;34.54;100440.32;1734726;80;25987;-66
2021/09/10 10:53:58;;;;;;;10.95;6.83;;;;;;;30.87;33.94;100431.50;1742751;81;25612;-67
2021/09/10 10:56:34;;;;;;;9.60;6.10;;;;;;;31.08;34.06;100427.90;1746850;81;27298;-66
2021/09/10 10:59:19;;;;;;;8.33;6.30;;;;;;;31.19;33.64;100420.56;1747081;80;25815;-66
2021/09/10 11:02:19;;;;;;;9.83;6.30;;;;;;;31.28;33.45;100417.89;1739200;79;25692;-67
2021/09/10 11:05:14;;;;;;;9.15;5.78;;;;;;;31.41;33.08;100422.04;1724366;80;25826;-66
2021/09/10 11:07:42;;;;;;;12.15;6.00;;;;;;;31.40;33.00;100422.66;1736749;81;25379;-66
2021/09/10 11:10:18;;;;;;;7.92;5.35;;;;;;;31.33;33.32;100423.50;1758507;81;27343;-65
2021/09/10 11:12:49;;;;;;;10.70;5.35;;;;;;;31.45;33.07;100415.73;1757452;80;25698;-65
2021/09/10 11:15:31;;;;;;;12.15;5.00;;;;;;;31.86;32.94;100422.34;1737486;80;25687;-66
2021/09/10 11:18:02;;;;;;;7.67;5.50;;;;;;;31.92;32.03;100416.94;1686244;82;25648;-66
2021/09/10 11:20:46;;;;;;;9.95;5.28;;;;;;;31.75;31.87;100421.30;1708270;82;25999;-67
2021/09/10 11:23:32;;;;;;;8.78;5.78;;;;;;;31.73;30.53;100418.80;1691529;83;27313;-66
2021/09/10 11:26:01;;;;;;;6.55;5.17;;;;;;;31.28;31.52;100421.45;1687536;83;25822;-65
2021/09/10 11:28:35;;;;;;;7.15;5.47;;;;;;;31.00;32.29;100416.16;1729045;81;25745;-65